sensor_id;sensor_type;location;lat;lon;timestamp;P1;durP1;ratioP1;P2;durP2;ratioP2
75885;SDS011;64561;44.018;10.144;2023-11-21T00:00:20;8.32;;;2.58;;
75885;SDS011;64561;44.018;10.144;2023-11-21T00:02:47;8.63;;;2.00;;
75885;SDS011;64561;44.018;10.144;2023-11-21T00:05:14;8.20;;;2.67;;
75885;SDS011;64561;44.018;10.144;2023-11-21T00:07:44;11.23;;;3.15;;
75885;SDS011;64561;44.018;10.144;2023-11-21T00:10:11;6.75;;;2.00;;
75885;SDS011;64561;44.018;10.144;2023-11-21T00:12:41;10.93;;;2.45;;
75885;SDS011;64561;44.018;10.144;2023-11-21T00:15:09;8.65;;;2.63;;
75885;SDS011;64561;44.018;10.144;2023-11-21T00:17:40;11.43;;;3.30;;
75885;SDS011;64561;44.018;10.144;2023-11-21T00:20:08;10.27;;;2.72;;
75885;SDS011;64561;44.018;10.144;2023-11-21T00:22:40;16.10;;;3.08;;
75885;SDS011;64561;44.018;10.144;2023-11-21T00:25:07;7.97;;;3.83;;
75885;SDS011;64561;44.018;10.144;2023-11-21T00:27:36;6.15;;;2.88;;
75885;SDS011;64561;44.018;10.144;2023-11-21T00:30:04;11.15;;;2.35;;
75885;SDS011;64561;44.018;10.144;2023-11-21T00:32:33;14.65;;;2.50;;
75885;SDS011;64561;44.018;10.144;2023-11-21T00:35:03;8.90;;;2.50;;
75885;SDS011;64561;44.018;10.144;2023-11-21T00:37:31;14.15;;;2.80;;
75885;SDS011;64561;44.018;10.144;2023-11-21T00:39:59;10.52;;;2.60;;
75885;SDS011;64561;44.018;10.144;2023-11-21T00:44:56;8.73;;;2.58;;
75885;SDS011;64561;44.018;10.144;2023-11-21T00:47:23;14.15;;;2.50;;
75885;SDS011;64561;44.018;10.144;2023-11-21T00:49:50;12.88;;;2.67;;
75885;SDS011;64561;44.018;10.144;2023-11-21T00:52:18;17.38;;;3.65;;
75885;SDS011;64561;44.018;10.144;2023-11-21T00:54:45;8.38;;;2.75;;
75885;SDS011;64561;44.018;10.144;2023-11-21T00:57:12;6.38;;;2.28;;
75885;SDS011;64561;44.018;10.144;2023-11-21T00:59:39;8.38;;;3.50;;
75885;SDS011;64561;44.018;10.144;2023-11-21T01:02:06;10.60;;;2.42;;
75885;SDS011;64561;44.018;10.144;2023-11-21T01:04:37;9.30;;;2.28;;
75885;SDS011;64561;44.018;10.144;2023-11-21T01:07:04;7.38;;;2.60;;
75885;SDS011;64561;44.018;10.144;2023-11-21T01:09:32;7.45;;;2.58;;
75885;SDS011;64561;44.018;10.144;2023-11-21T01:11:59;7.78;;;2.30;;
75885;SDS011;64561;44.018;10.144;2023-11-21T01:14:27;9.75;;;3.95;;
75885;SDS011;64561;44.018;10.144;2023-11-21T01:16:54;9.48;;;3.33;;
75885;SDS011;64561;44.018;10.144;2023-11-21T01:19:21;10.13;;;2.90;;
75885;SDS011;64561;44.018;10.144;2023-11-21T01:21:48;9.57;;;3.42;;
75885;SDS011;64561;44.018;10.144;2023-11-21T01:24:16;7.65;;;2.13;;
75885;SDS011;64561;44.018;10.144;2023-11-21T01:26:43;8.32;;;2.92;;
75885;SDS011;64561;44.018;10.144;2023-11-21T01:29:12;11.13;;;2.42;;
75885;SDS011;64561;44.018;10.144;2023-11-21T01:31:39;5.75;;;1.90;;
75885;SDS011;64561;44.018;10.144;2023-11-21T01:34:06;5.32;;;2.53;;
75885;SDS011;64561;44.018;10.144;2023-11-21T01:36:34;4.78;;;2.20;;
75885;SDS011;64561;44.018;10.144;2023-11-21T01:39:02;9.25;;;2.80;;
75885;SDS011;64561;44.018;10.144;2023-11-21T01:41:34;8.00;;;2.15;;
75885;SDS011;64561;44.018;10.144;2023-11-21T01:44:01;5.72;;;2.20;;
75885;SDS011;64561;44.018;10.144;2023-11-21T01:46:29;5.82;;;2.30;;
75885;SDS011;64561;44.018;10.144;2023-11-21T01:48:57;5.72;;;1.73;;
75885;SDS011;64561;44.018;10.144;2023-11-21T01:51:24;9.05;;;2.85;;
75885;SDS011;64561;44.018;10.144;2023-11-21T01:53:54;6.20;;;2.28;;
75885;SDS011;64561;44.018;10.144;2023-11-21T01:56:22;6.28;;;2.35;;
75885;SDS011;64561;44.018;10.144;2023-11-21T01:58:50;7.28;;;2.33;;
75885;SDS011;64561;44.018;10.144;2023-11-21T02:01:17;7.32;;;2.47;;
75885;SDS011;64561;44.018;10.144;2023-11-21T02:03:45;7.35;;;2.70;;
75885;SDS011;64561;44.018;10.144;2023-11-21T02:06:13;6.82;;;2.80;;
75885;SDS011;64561;44.018;10.144;2023-11-21T02:08:43;5.80;;;3.03;;
75885;SDS011;64561;44.018;10.144;2023-11-21T02:11:11;5.00;;;2.83;;
75885;SDS011;64561;44.018;10.144;2023-11-21T02:13:40;5.43;;;2.58;;
75885;SDS011;64561;44.018;10.144;2023-11-21T02:16:11;9.23;;;3.33;;
75885;SDS011;64561;44.018;10.144;2023-11-21T02:18:40;6.50;;;1.95;;
75885;SDS011;64561;44.018;10.144;2023-11-21T02:21:09;6.65;;;2.50;;
75885;SDS011;64561;44.018;10.144;2023-11-21T02:23:37;9.02;;;2.90;;
75885;SDS011;64561;44.018;10.144;2023-11-21T02:26:05;5.85;;;2.70;;
75885;SDS011;64561;44.018;10.144;2023-11-21T02:28:32;4.25;;;2.05;;
75885;SDS011;64561;44.018;10.144;2023-11-21T02:31:00;3.42;;;1.75;;
75885;SDS011;64561;44.018;10.144;2023-11-21T02:33:27;5.15;;;2.20;;
75885;SDS011;64561;44.018;10.144;2023-11-21T02:35:54;3.65;;;1.85;;
75885;SDS011;64561;44.018;10.144;2023-11-21T02:38:22;4.55;;;2.00;;
75885;SDS011;64561;44.018;10.144;2023-11-21T02:40:49;3.90;;;1.70;;
75885;SDS011;64561;44.018;10.144;2023-11-21T02:43:16;5.90;;;2.08;;
75885;SDS011;64561;44.018;10.144;2023-11-21T02:45:44;4.97;;;1.77;;
75885;SDS011;64561;44.018;10.144;2023-11-21T02:48:12;5.95;;;2.15;;
75885;SDS011;64561;44.018;10.144;2023-11-21T02:50:39;5.60;;;2.58;;
75885;SDS011;64561;44.018;10.144;2023-11-21T02:53:06;4.13;;;2.42;;
75885;SDS011;64561;44.018;10.144;2023-11-21T02:55:34;6.47;;;2.20;;
75885;SDS011;64561;44.018;10.144;2023-11-21T02:58:02;6.55;;;2.10;;
75885;SDS011;64561;44.018;10.144;2023-11-21T03:00:33;7.65;;;2.42;;
75885;SDS011;64561;44.018;10.144;2023-11-21T03:03:01;6.95;;;2.22;;
75885;SDS011;64561;44.018;10.144;2023-11-21T03:05:28;5.70;;;2.10;;
75885;SDS011;64561;44.018;10.144;2023-11-21T03:07:56;6.97;;;2.55;;
75885;SDS011;64561;44.018;10.144;2023-11-21T03:10:25;7.03;;;2.53;;
75885;SDS011;64561;44.018;10.144;2023-11-21T03:12:52;5.68;;;2.33;;
75885;SDS011;64561;44.018;10.144;2023-11-21T03:15:19;5.75;;;2.60;;
75885;SDS011;64561;44.018;10.144;2023-11-21T03:17:46;6.18;;;2.75;;
75885;SDS011;64561;44.018;10.144;2023-11-21T03:20:16;9.32;;;2.65;;
75885;SDS011;64561;44.018;10.144;2023-11-21T03:22:43;4.10;;;2.00;;
75885;SDS011;64561;44.018;10.144;2023-11-21T03:25:12;5.30;;;2.10;;
75885;SDS011;64561;44.018;10.144;2023-11-21T03:27:40;5.10;;;1.92;;
75885;SDS011;64561;44.018;10.144;2023-11-21T03:30:07;6.30;;;2.10;;
75885;SDS011;64561;44.018;10.144;2023-11-21T03:32:35;5.70;;;1.90;;
75885;SDS011;64561;44.018;10.144;2023-11-21T03:35:03;8.48;;;2.17;;
75885;SDS011;64561;44.018;10.144;2023-11-21T03:37:30;5.82;;;1.92;;
75885;SDS011;64561;44.018;10.144;2023-11-21T03:39:57;4.13;;;1.98;;
75885;SDS011;64561;44.018;10.144;2023-11-21T03:42:25;4.13;;;1.80;;
75885;SDS011;64561;44.018;10.144;2023-11-21T03:44:54;4.97;;;1.90;;
75885;SDS011;64561;44.018;10.144;2023-11-21T03:47:21;4.22;;;2.03;;
75885;SDS011;64561;44.018;10.144;2023-11-21T03:49:48;5.75;;;2.20;;
75885;SDS011;64561;44.018;10.144;2023-11-21T03:52:15;7.68;;;1.90;;
75885;SDS011;64561;44.018;10.144;2023-11-21T03:54:43;6.70;;;2.28;;
75885;SDS011;64561;44.018;10.144;2023-11-21T03:57:11;4.45;;;2.10;;
75885;SDS011;64561;44.018;10.144;2023-11-21T03:59:42;6.93;;;2.10;;
75885;SDS011;64561;44.018;10.144;2023-11-21T04:02:10;8.07;;;2.03;;
75885;SDS011;64561;44.018;10.144;2023-11-21T04:04:37;5.60;;;2.30;;
75885;SDS011;64561;44.018;10.144;2023-11-21T04:07:04;5.30;;;1.80;;
75885;SDS011;64561;44.018;10.144;2023-11-21T04:09:32;6.97;;;2.20;;
75885;SDS011;64561;44.018;10.144;2023-11-21T04:11:59;4.65;;;1.80;;
75885;SDS011;64561;44.018;10.144;2023-11-21T04:14:26;6.03;;;2.08;;
75885;SDS011;64561;44.018;10.144;2023-11-21T04:16:54;5.43;;;1.65;;
75885;SDS011;64561;44.018;10.144;2023-11-21T04:19:21;6.45;;;1.83;;
75885;SDS011;64561;44.018;10.144;2023-11-21T04:21:48;5.43;;;2.00;;
75885;SDS011;64561;44.018;10.144;2023-11-21T04:24:16;8.10;;;2.00;;
75885;SDS011;64561;44.018;10.144;2023-11-21T04:26:44;7.00;;;2.47;;
75885;SDS011;64561;44.018;10.144;2023-11-21T04:29:11;4.90;;;2.42;;
75885;SDS011;64561;44.018;10.144;2023-11-21T04:31:38;5.85;;;2.08;;
75885;SDS011;64561;44.018;10.144;2023-11-21T04:34:05;9.30;;;2.85;;
75885;SDS011;64561;44.018;10.144;2023-11-21T04:36:32;6.50;;;3.10;;
75885;SDS011;64561;44.018;10.144;2023-11-21T04:39:01;6.28;;;3.10;;
75885;SDS011;64561;44.018;10.144;2023-11-21T04:41:28;7.55;;;2.83;;
75885;SDS011;64561;44.018;10.144;2023-11-21T04:43:55;5.88;;;2.05;;
75885;SDS011;64561;44.018;10.144;2023-11-21T04:46:22;6.03;;;1.90;;
75885;SDS011;64561;44.018;10.144;2023-11-21T04:48:49;6.07;;;1.98;;
75885;SDS011;64561;44.018;10.144;2023-11-21T04:51:16;8.18;;;2.25;;
75885;SDS011;64561;44.018;10.144;2023-11-21T04:53:43;5.85;;;1.92;;
75885;SDS011;64561;44.018;10.144;2023-11-21T04:56:10;7.18;;;2.40;;
75885;SDS011;64561;44.018;10.144;2023-11-21T04:58:37;4.82;;;1.90;;
75885;SDS011;64561;44.018;10.144;2023-11-21T05:01:09;7.97;;;2.33;;
75885;SDS011;64561;44.018;10.144;2023-11-21T05:03:36;7.95;;;2.15;;
75885;SDS011;64561;44.018;10.144;2023-11-21T05:06:05;5.20;;;2.08;;
75885;SDS011;64561;44.018;10.144;2023-11-21T05:08:33;6.63;;;1.85;;
75885;SDS011;64561;44.018;10.144;2023-11-21T05:11:00;6.38;;;2.00;;
75885;SDS011;64561;44.018;10.144;2023-11-21T05:13:27;6.28;;;1.85;;
75885;SDS011;64561;44.018;10.144;2023-11-21T05:15:55;5.20;;;1.98;;
75885;SDS011;64561;44.018;10.144;2023-11-21T05:20:56;8.73;;;2.25;;
75885;SDS011;64561;44.018;10.144;2023-11-21T05:23:24;4.00;;;1.70;;
75885;SDS011;64561;44.018;10.144;2023-11-21T05:25:52;10.90;;;3.22;;
75885;SDS011;64561;44.018;10.144;2023-11-21T05:28:19;10.13;;;3.00;;
75885;SDS011;64561;44.018;10.144;2023-11-21T05:30:46;6.43;;;2.05;;
75885;SDS011;64561;44.018;10.144;2023-11-21T05:33:13;6.05;;;1.90;;
75885;SDS011;64561;44.018;10.144;2023-11-21T05:35:41;7.47;;;1.90;;
75885;SDS011;64561;44.018;10.144;2023-11-21T05:38:08;9.57;;;2.13;;
75885;SDS011;64561;44.018;10.144;2023-11-21T05:40:35;5.35;;;1.80;;
75885;SDS011;64561;44.018;10.144;2023-11-21T05:43:04;6.00;;;1.83;;
75885;SDS011;64561;44.018;10.144;2023-11-21T05:45:32;10.45;;;2.35;;
75885;SDS011;64561;44.018;10.144;2023-11-21T05:47:59;8.90;;;2.25;;
75885;SDS011;64561;44.018;10.144;2023-11-21T05:50:26;6.43;;;2.78;;
75885;SDS011;64561;44.018;10.144;2023-11-21T05:52:53;4.85;;;1.98;;
75885;SDS011;64561;44.018;10.144;2023-11-21T05:55:22;4.68;;;1.90;;
75885;SDS011;64561;44.018;10.144;2023-11-21T05:57:52;8.52;;;3.08;;
75885;SDS011;64561;44.018;10.144;2023-11-21T06:00:20;8.80;;;2.53;;
75885;SDS011;64561;44.018;10.144;2023-11-21T06:02:55;6.57;;;1.77;;
75885;SDS011;64561;44.018;10.144;2023-11-21T06:05:24;9.50;;;2.45;;
75885;SDS011;64561;44.018;10.144;2023-11-21T06:07:53;7.35;;;2.15;;
75885;SDS011;64561;44.018;10.144;2023-11-21T06:10:22;6.75;;;2.15;;
75885;SDS011;64561;44.018;10.144;2023-11-21T06:12:52;6.07;;;2.03;;
75885;SDS011;64561;44.018;10.144;2023-11-21T06:15:20;5.03;;;2.58;;
75885;SDS011;64561;44.018;10.144;2023-11-21T06:17:50;6.57;;;2.25;;
75885;SDS011;64561;44.018;10.144;2023-11-21T06:20:21;5.10;;;2.10;;
75885;SDS011;64561;44.018;10.144;2023-11-21T06:22:50;5.35;;;2.67;;
75885;SDS011;64561;44.018;10.144;2023-11-21T06:25:18;6.32;;;2.80;;
75885;SDS011;64561;44.018;10.144;2023-11-21T06:27:47;11.70;;;3.58;;
75885;SDS011;64561;44.018;10.144;2023-11-21T06:30:15;10.75;;;2.30;;
75885;SDS011;64561;44.018;10.144;2023-11-21T06:32:43;8.25;;;2.22;;
75885;SDS011;64561;44.018;10.144;2023-11-21T06:35:14;6.80;;;2.65;;
75885;SDS011;64561;44.018;10.144;2023-11-21T06:37:44;5.03;;;2.08;;
75885;SDS011;64561;44.018;10.144;2023-11-21T06:40:17;5.03;;;2.03;;
75885;SDS011;64561;44.018;10.144;2023-11-21T06:42:46;4.20;;;2.58;;
75885;SDS011;64561;44.018;10.144;2023-11-21T06:45:15;4.88;;;2.15;;
75885;SDS011;64561;44.018;10.144;2023-11-21T06:47:42;6.75;;;2.17;;
75885;SDS011;64561;44.018;10.144;2023-11-21T06:50:10;6.40;;;2.45;;
75885;SDS011;64561;44.018;10.144;2023-11-21T06:52:37;9.50;;;3.08;;
75885;SDS011;64561;44.018;10.144;2023-11-21T06:55:05;4.28;;;2.28;;
75885;SDS011;64561;44.018;10.144;2023-11-21T06:57:36;5.13;;;2.22;;
75885;SDS011;64561;44.018;10.144;2023-11-21T07:00:05;4.50;;;2.15;;
75885;SDS011;64561;44.018;10.144;2023-11-21T07:02:36;3.75;;;1.70;;
75885;SDS011;64561;44.018;10.144;2023-11-21T07:05:03;3.67;;;2.05;;
75885;SDS011;64561;44.018;10.144;2023-11-21T07:07:31;8.02;;;2.53;;
75885;SDS011;64561;44.018;10.144;2023-11-21T07:09:58;7.88;;;2.33;;
75885;SDS011;64561;44.018;10.144;2023-11-21T07:12:31;6.68;;;2.03;;
75885;SDS011;64561;44.018;10.144;2023-11-21T07:14:58;6.05;;;2.03;;
75885;SDS011;64561;44.018;10.144;2023-11-21T07:17:26;9.95;;;2.55;;
75885;SDS011;64561;44.018;10.144;2023-11-21T07:19:53;5.82;;;1.92;;
75885;SDS011;64561;44.018;10.144;2023-11-21T07:22:21;8.20;;;2.42;;
75885;SDS011;64561;44.018;10.144;2023-11-21T07:24:49;6.57;;;2.92;;
75885;SDS011;64561;44.018;10.144;2023-11-21T07:27:17;6.03;;;2.30;;
75885;SDS011;64561;44.018;10.144;2023-11-21T07:29:45;6.85;;;2.28;;
75885;SDS011;64561;44.018;10.144;2023-11-21T07:32:12;3.97;;;2.10;;
75885;SDS011;64561;44.018;10.144;2023-11-21T07:34:40;4.47;;;1.77;;
75885;SDS011;64561;44.018;10.144;2023-11-21T07:37:08;4.78;;;2.67;;
75885;SDS011;64561;44.018;10.144;2023-11-21T07:39:35;6.63;;;1.80;;
75885;SDS011;64561;44.018;10.144;2023-11-21T07:42:03;7.03;;;2.28;;
75885;SDS011;64561;44.018;10.144;2023-11-21T07:44:31;6.68;;;2.15;;
75885;SDS011;64561;44.018;10.144;2023-11-21T07:46:58;6.28;;;2.00;;
75885;SDS011;64561;44.018;10.144;2023-11-21T07:49:25;5.75;;;1.70;;
75885;SDS011;64561;44.018;10.144;2023-11-21T07:51:53;3.42;;;1.70;;
75885;SDS011;64561;44.018;10.144;2023-11-21T07:54:21;5.78;;;2.28;;
75885;SDS011;64561;44.018;10.144;2023-11-21T07:56:48;6.78;;;1.60;;
75885;SDS011;64561;44.018;10.144;2023-11-21T07:59:15;6.00;;;2.22;;
75885;SDS011;64561;44.018;10.144;2023-11-21T08:01:43;6.75;;;1.63;;
75885;SDS011;64561;44.018;10.144;2023-11-21T08:04:12;6.53;;;1.90;;
75885;SDS011;64561;44.018;10.144;2023-11-21T08:06:39;4.82;;;1.75;;
75885;SDS011;64561;44.018;10.144;2023-11-21T08:09:08;5.90;;;2.17;;
75885;SDS011;64561;44.018;10.144;2023-11-21T08:11:36;5.68;;;2.05;;
75885;SDS011;64561;44.018;10.144;2023-11-21T08:14:05;10.05;;;2.72;;
75885;SDS011;64561;44.018;10.144;2023-11-21T08:16:35;8.00;;;3.33;;
75885;SDS011;64561;44.018;10.144;2023-11-21T08:19:02;11.55;;;3.80;;
75885;SDS011;64561;44.018;10.144;2023-11-21T08:21:30;14.10;;;5.55;;
75885;SDS011;64561;44.018;10.144;2023-11-21T08:23:58;10.35;;;5.35;;
75885;SDS011;64561;44.018;10.144;2023-11-21T08:26:25;9.63;;;5.10;;
75885;SDS011;64561;44.018;10.144;2023-11-21T08:28:52;10.73;;;4.75;;
75885;SDS011;64561;44.018;10.144;2023-11-21T08:31:23;14.65;;;5.60;;
75885;SDS011;64561;44.018;10.144;2023-11-21T08:33:52;11.15;;;3.80;;
75885;SDS011;64561;44.018;10.144;2023-11-21T08:36:22;8.88;;;3.33;;
75885;SDS011;64561;44.018;10.144;2023-11-21T08:38:52;9.93;;;3.65;;
75885;SDS011;64561;44.018;10.144;2023-11-21T08:41:19;10.35;;;3.60;;
75885;SDS011;64561;44.018;10.144;2023-11-21T08:43:49;8.23;;;3.63;;
75885;SDS011;64561;44.018;10.144;2023-11-21T08:46:18;9.10;;;3.88;;
75885;SDS011;64561;44.018;10.144;2023-11-21T08:48:46;16.20;;;6.95;;
75885;SDS011;64561;44.018;10.144;2023-11-21T08:51:13;15.52;;;6.40;;
75885;SDS011;64561;44.018;10.144;2023-11-21T08:53:41;5.85;;;3.83;;
75885;SDS011;64561;44.018;10.144;2023-11-21T08:56:14;6.50;;;3.13;;
75885;SDS011;64561;44.018;10.144;2023-11-21T08:58:42;6.15;;;3.25;;
75885;SDS011;64561;44.018;10.144;2023-11-21T09:01:10;7.55;;;3.40;;
75885;SDS011;64561;44.018;10.144;2023-11-21T09:03:39;7.60;;;3.80;;
75885;SDS011;64561;44.018;10.144;2023-11-21T09:06:06;8.43;;;3.50;;
75885;SDS011;64561;44.018;10.144;2023-11-21T09:08:37;7.97;;;4.25;;
75885;SDS011;64561;44.018;10.144;2023-11-21T09:11:04;9.60;;;4.60;;
75885;SDS011;64561;44.018;10.144;2023-11-21T09:13:33;8.65;;;3.40;;
75885;SDS011;64561;44.018;10.144;2023-11-21T09:16:01;9.95;;;4.70;;
75885;SDS011;64561;44.018;10.144;2023-11-21T09:18:28;5.20;;;2.65;;
75885;SDS011;64561;44.018;10.144;2023-11-21T09:20:55;8.82;;;3.63;;
75885;SDS011;64561;44.018;10.144;2023-11-21T09:23:22;3.90;;;2.53;;
75885;SDS011;64561;44.018;10.144;2023-11-21T09:25:50;4.40;;;2.47;;
75885;SDS011;64561;44.018;10.144;2023-11-21T09:28:18;5.97;;;2.13;;
75885;SDS011;64561;44.018;10.144;2023-11-21T09:30:45;6.55;;;3.10;;
75885;SDS011;64561;44.018;10.144;2023-11-21T09:33:12;6.72;;;2.92;;
75885;SDS011;64561;44.018;10.144;2023-11-21T09:35:40;7.88;;;2.95;;
75885;SDS011;64561;44.018;10.144;2023-11-21T09:38:07;5.57;;;2.72;;
75885;SDS011;64561;44.018;10.144;2023-11-21T09:40:38;5.78;;;2.72;;
75885;SDS011;64561;44.018;10.144;2023-11-21T09:43:06;7.75;;;4.22;;
75885;SDS011;64561;44.018;10.144;2023-11-21T09:45:46;11.73;;;3.22;;
75885;SDS011;64561;44.018;10.144;2023-11-21T09:48:15;6.97;;;2.90;;
75885;SDS011;64561;44.018;10.144;2023-11-21T09:50:43;7.97;;;2.92;;
75885;SDS011;64561;44.018;10.144;2023-11-21T09:53:12;6.10;;;3.10;;
75885;SDS011;64561;44.018;10.144;2023-11-21T09:55:43;6.22;;;3.10;;
75885;SDS011;64561;44.018;10.144;2023-11-21T09:58:12;5.07;;;2.60;;
75885;SDS011;64561;44.018;10.144;2023-11-21T10:00:41;4.93;;;2.58;;
75885;SDS011;64561;44.018;10.144;2023-11-21T10:03:09;5.40;;;2.45;;
75885;SDS011;64561;44.018;10.144;2023-11-21T10:05:38;6.38;;;2.47;;
75885;SDS011;64561;44.018;10.144;2023-11-21T10:08:07;5.60;;;3.08;;
75885;SDS011;64561;44.018;10.144;2023-11-21T10:10:45;6.75;;;2.88;;
75885;SDS011;64561;44.018;10.144;2023-11-21T10:13:15;5.38;;;2.78;;
75885;SDS011;64561;44.018;10.144;2023-11-21T10:15:49;7.43;;;2.78;;
75885;SDS011;64561;44.018;10.144;2023-11-21T10:18:18;6.57;;;2.63;;
75885;SDS011;64561;44.018;10.144;2023-11-21T10:20:46;5.13;;;1.75;;
75885;SDS011;64561;44.018;10.144;2023-11-21T10:23:21;6.20;;;2.50;;
75885;SDS011;64561;44.018;10.144;2023-11-21T10:25:53;5.72;;;2.22;;
75885;SDS011;64561;44.018;10.144;2023-11-21T10:28:25;6.25;;;2.40;;
75885;SDS011;64561;44.018;10.144;2023-11-21T10:30:52;4.50;;;2.08;;
75885;SDS011;64561;44.018;10.144;2023-11-21T10:33:26;4.15;;;1.90;;
75885;SDS011;64561;44.018;10.144;2023-11-21T10:35:56;5.28;;;2.20;;
75885;SDS011;64561;44.018;10.144;2023-11-21T10:38:23;4.93;;;2.20;;
75885;SDS011;64561;44.018;10.144;2023-11-21T10:40:51;6.20;;;2.47;;
75885;SDS011;64561;44.018;10.144;2023-11-21T10:43:19;3.95;;;2.10;;
75885;SDS011;64561;44.018;10.144;2023-11-21T10:45:47;4.78;;;2.55;;
75885;SDS011;64561;44.018;10.144;2023-11-21T10:48:15;6.35;;;2.10;;
75885;SDS011;64561;44.018;10.144;2023-11-21T10:50:46;6.60;;;2.00;;
75885;SDS011;64561;44.018;10.144;2023-11-21T10:53:14;3.20;;;1.77;;
75885;SDS011;64561;44.018;10.144;2023-11-21T10:55:42;4.22;;;1.95;;
75885;SDS011;64561;44.018;10.144;2023-11-21T10:58:13;4.80;;;2.25;;
75885;SDS011;64561;44.018;10.144;2023-11-21T11:00:41;4.65;;;2.22;;
75885;SDS011;64561;44.018;10.144;2023-11-21T11:03:12;8.10;;;2.35;;
75885;SDS011;64561;44.018;10.144;2023-11-21T11:05:44;3.08;;;2.00;;
75885;SDS011;64561;44.018;10.144;2023-11-21T11:08:20;5.53;;;2.25;;
75885;SDS011;64561;44.018;10.144;2023-11-21T11:10:55;5.55;;;2.40;;
75885;SDS011;64561;44.018;10.144;2023-11-21T11:13:22;4.75;;;2.55;;
75885;SDS011;64561;44.018;10.144;2023-11-21T11:15:52;6.45;;;2.65;;
75885;SDS011;64561;44.018;10.144;2023-11-21T11:18:29;4.30;;;2.47;;
75885;SDS011;64561;44.018;10.144;2023-11-21T11:20:59;5.05;;;2.55;;
75885;SDS011;64561;44.018;10.144;2023-11-21T11:29:35;3.72;;;2.45;;
75885;SDS011;64561;44.018;10.144;2023-11-21T11:32:20;5.43;;;2.67;;
75885;SDS011;64561;44.018;10.144;2023-11-21T11:35:00;8.73;;;2.80;;
75885;SDS011;64561;44.018;10.144;2023-11-21T11:37:34;5.47;;;2.25;;
75885;SDS011;64561;44.018;10.144;2023-11-21T11:40:01;6.45;;;2.55;;
75885;SDS011;64561;44.018;10.144;2023-11-21T11:42:33;6.55;;;3.22;;
75885;SDS011;64561;44.018;10.144;2023-11-21T11:45:00;7.07;;;3.28;;
75885;SDS011;64561;44.018;10.144;2023-11-21T11:47:31;5.80;;;3.13;;
75885;SDS011;64561;44.018;10.144;2023-11-21T11:50:05;5.20;;;2.40;;
75885;SDS011;64561;44.018;10.144;2023-11-21T11:52:49;6.97;;;3.10;;
75885;SDS011;64561;44.018;10.144;2023-11-21T11:55:20;7.43;;;2.33;;
75885;SDS011;64561;44.018;10.144;2023-11-21T11:57:49;6.10;;;2.50;;
75885;SDS011;64561;44.018;10.144;2023-11-21T12:00:20;4.75;;;2.80;;
75885;SDS011;64561;44.018;10.144;2023-11-21T12:02:53;6.15;;;3.13;;
75885;SDS011;64561;44.018;10.144;2023-11-21T12:05:21;6.32;;;3.90;;
75885;SDS011;64561;44.018;10.144;2023-11-21T12:10:22;7.90;;;4.18;;
75885;SDS011;64561;44.018;10.144;2023-11-21T12:15:22;9.07;;;4.97;;
75885;SDS011;64561;44.018;10.144;2023-11-21T12:17:50;10.55;;;4.63;;
75885;SDS011;64561;44.018;10.144;2023-11-21T12:20:19;15.23;;;8.45;;
75885;SDS011;64561;44.018;10.144;2023-11-21T12:22:48;6.07;;;3.45;;
75885;SDS011;64561;44.018;10.144;2023-11-21T12:25:20;5.78;;;2.97;;
75885;SDS011;64561;44.018;10.144;2023-11-21T12:27:50;7.57;;;2.33;;
75885;SDS011;64561;44.018;10.144;2023-11-21T12:30:22;7.93;;;3.35;;
75885;SDS011;64561;44.018;10.144;2023-11-21T12:32:51;11.10;;;4.68;;
75885;SDS011;64561;44.018;10.144;2023-11-21T12:35:20;5.82;;;2.20;;
75885;SDS011;64561;44.018;10.144;2023-11-21T12:37:51;7.05;;;2.70;;
75885;SDS011;64561;44.018;10.144;2023-11-21T12:40:19;8.38;;;2.47;;
75885;SDS011;64561;44.018;10.144;2023-11-21T12:42:51;5.13;;;2.72;;
75885;SDS011;64561;44.018;10.144;2023-11-21T12:45:20;5.20;;;2.53;;
75885;SDS011;64561;44.018;10.144;2023-11-21T12:47:51;6.53;;;2.55;;
75885;SDS011;64561;44.018;10.144;2023-11-21T12:50:24;6.15;;;2.28;;
75885;SDS011;64561;44.018;10.144;2023-11-21T12:52:59;7.72;;;2.80;;
75885;SDS011;64561;44.018;10.144;2023-11-21T12:55:29;6.13;;;2.20;;
75885;SDS011;64561;44.018;10.144;2023-11-21T12:57:59;5.50;;;2.38;;
75885;SDS011;64561;44.018;10.144;2023-11-21T13:03:10;4.90;;;2.25;;
75885;SDS011;64561;44.018;10.144;2023-11-21T13:05:43;7.88;;;2.92;;
75885;SDS011;64561;44.018;10.144;2023-11-21T13:08:15;4.95;;;2.97;;
75885;SDS011;64561;44.018;10.144;2023-11-21T13:10:48;5.57;;;2.45;;
75885;SDS011;64561;44.018;10.144;2023-11-21T13:13:17;4.82;;;2.80;;
75885;SDS011;64561;44.018;10.144;2023-11-21T13:15:51;6.78;;;2.92;;
75885;SDS011;64561;44.018;10.144;2023-11-21T13:18:24;7.68;;;3.50;;
75885;SDS011;64561;44.018;10.144;2023-11-21T13:20:55;6.50;;;2.63;;
75885;SDS011;64561;44.018;10.144;2023-11-21T13:23:25;8.38;;;3.20;;
75885;SDS011;64561;44.018;10.144;2023-11-21T13:25:53;6.97;;;2.58;;
75885;SDS011;64561;44.018;10.144;2023-11-21T13:28:31;4.90;;;2.58;;
75885;SDS011;64561;44.018;10.144;2023-11-21T13:31:01;6.03;;;2.60;;
75885;SDS011;64561;44.018;10.144;2023-11-21T13:33:38;3.80;;;2.17;;
75885;SDS011;64561;44.018;10.144;2023-11-21T13:36:08;6.43;;;2.00;;
75885;SDS011;64561;44.018;10.144;2023-11-21T13:38:38;5.13;;;2.10;;
75885;SDS011;64561;44.018;10.144;2023-11-21T13:41:10;6.50;;;3.13;;
75885;SDS011;64561;44.018;10.144;2023-11-21T13:43:39;6.32;;;3.70;;
75885;SDS011;64561;44.018;10.144;2023-11-21T13:46:10;6.97;;;3.03;;
75885;SDS011;64561;44.018;10.144;2023-11-21T13:48:43;5.15;;;2.38;;
75885;SDS011;64561;44.018;10.144;2023-11-21T13:51:23;6.50;;;3.13;;
75885;SDS011;64561;44.018;10.144;2023-11-21T13:54:04;7.20;;;2.97;;
75885;SDS011;64561;44.018;10.144;2023-11-21T13:56:36;8.40;;;3.22;;
75885;SDS011;64561;44.018;10.144;2023-11-21T13:59:05;4.70;;;2.90;;
75885;SDS011;64561;44.018;10.144;2023-11-21T14:01:43;7.20;;;2.67;;
75885;SDS011;64561;44.018;10.144;2023-11-21T14:04:21;6.90;;;2.20;;
75885;SDS011;64561;44.018;10.144;2023-11-21T14:06:58;5.40;;;2.40;;
75885;SDS011;64561;44.018;10.144;2023-11-21T14:09:28;4.03;;;2.22;;
75885;SDS011;64561;44.018;10.144;2023-11-21T14:12:11;5.57;;;2.10;;
75885;SDS011;64561;44.018;10.144;2023-11-21T14:14:40;5.40;;;2.20;;
75885;SDS011;64561;44.018;10.144;2023-11-21T14:17:07;6.88;;;2.42;;
75885;SDS011;64561;44.018;10.144;2023-11-21T14:19:36;6.10;;;2.10;;
75885;SDS011;64561;44.018;10.144;2023-11-21T14:22:07;6.63;;;2.97;;
75885;SDS011;64561;44.018;10.144;2023-11-21T14:24:37;6.03;;;3.35;;
75885;SDS011;64561;44.018;10.144;2023-11-21T14:27:04;7.25;;;2.10;;
75885;SDS011;64561;44.018;10.144;2023-11-21T14:29:32;8.48;;;3.38;;
75885;SDS011;64561;44.018;10.144;2023-11-21T14:32:05;5.72;;;3.00;;
75885;SDS011;64561;44.018;10.144;2023-11-21T14:34:35;5.47;;;3.35;;
75885;SDS011;64561;44.018;10.144;2023-11-21T14:37:03;4.00;;;2.92;;
75885;SDS011;64561;44.018;10.144;2023-11-21T14:39:31;7.95;;;3.70;;
75885;SDS011;64561;44.018;10.144;2023-11-21T14:42:02;5.82;;;4.35;;
75885;SDS011;64561;44.018;10.144;2023-11-21T14:44:29;8.80;;;4.63;;
75885;SDS011;64561;44.018;10.144;2023-11-21T14:47:02;8.82;;;3.17;;
75885;SDS011;64561;44.018;10.144;2023-11-21T14:49:34;6.85;;;2.58;;
75885;SDS011;64561;44.018;10.144;2023-11-21T14:52:17;10.18;;;6.15;;
75885;SDS011;64561;44.018;10.144;2023-11-21T14:55:10;5.90;;;3.75;;
75885;SDS011;64561;44.018;10.144;2023-11-21T14:57:59;8.65;;;3.83;;
75885;SDS011;64561;44.018;10.144;2023-11-21T15:00:31;7.78;;;4.70;;
75885;SDS011;64561;44.018;10.144;2023-11-21T15:05:30;4.25;;;1.67;;